Time;durP1;ratioP1;P1;durP2;ratioP2;P2;SDS_P1;SDS_P2;PMS_P1;PMS_P2;Temp;Humidity;BMP_temperature;BMP_pressure;BME280_temperature;BME280_humidity;BME280_pressure;Samples;Min_cycle;Max_cycle;Signal;HPM_P1;HPM_P2
2021/04/07 00:01:31;;;;;;;3.57;2.57;;;1.70;99.90;;;;;;5034313;28;20257;-73
2021/04/07 00:03:57;;;;;;;2.90;2.57;;;1.60;99.90;;;;;;5034217;28;20181;-72
2021/04/07 00:06:23;;;;;;;3.00;2.53;;;1.50;99.90;;;;;;5034129;28;20221;-73
2021/04/07 00:08:50;;;;;;;4.43;3.00;;;1.60;99.90;;;;;;5032536;28;20239;-73
2021/04/07 00:11:17;;;;;;;4.27;2.93;;;1.50;99.90;;;;;;5032735;28;20178;-73
2021/04/07 00:13:43;;;;;;;4.60;3.40;;;1.50;99.90;;;;;;5034018;28;20180;-73
2021/04/07 00:16:10;;;;;;;3.33;3.03;;;1.40;99.90;;;;;;5033965;28;20701;-73
2021/04/07 00:18:36;;;;;;;3.67;3.23;;;1.30;99.90;;;;;;5034122;28;20196;-73
2021/04/07 00:21:02;;;;;;;5.57;3.70;;;1.20;99.90;;;;;;5033908;28;20175;-72
2021/04/07 00:23:28;;;;;;;3.77;3.40;;;1.20;99.90;;;;;;5033727;28;20170;-72
2021/04/07 00:25:54;;;;;;;5.47;3.53;;;1.40;99.90;;;;;;5033177;28;20656;-73
2021/04/07 00:28:21;;;;;;;5.13;3.30;;;1.50;99.90;;;;;;5033681;28;20206;-72
2021/04/07 00:30:48;;;;;;;4.57;3.70;;;1.30;99.90;;;;;;5034065;28;20179;-73
2021/04/07 00:33:16;;;;;;;4.07;2.90;;;1.10;99.90;;;;;;5025249;28;20183;-72
2021/04/07 00:35:42;;;;;;;4.30;3.90;;;1.00;99.90;;;;;;5033463;28;20198;-73
2021/04/07 00:38:08;;;;;;;5.87;3.63;;;1.10;99.90;;;;;;5031796;28;20210;-72
2021/04/07 00:40:34;;;;;;;3.93;3.53;;;0.90;99.90;;;;;;5032302;28;20581;-73
2021/04/07 00:43:02;;;;;;;4.37;3.97;;;0.90;99.90;;;;;;5033515;28;20214;-73
2021/04/07 00:45:28;;;;;;;4.77;3.87;;;0.90;99.90;;;;;;5033420;28;20170;-73
2021/04/07 00:47:54;;;;;;;5.07;3.57;;;1.00;99.90;;;;;;5031968;28;20618;-73
2021/04/07 00:50:23;;;;;;;4.13;3.67;;;1.10;99.90;;;;;;5032094;28;20229;-73
2021/04/07 00:52:49;;;;;;;5.37;3.67;;;1.20;99.90;;;;;;5019523;28;20221;-73
2021/04/07 00:55:18;;;;;;;4.30;3.53;;;1.10;99.90;;;;;;5031906;28;20244;-73
2021/04/07 00:57:45;;;;;;;4.60;3.80;;;1.00;99.90;;;;;;5033084;28;20186;-73
2021/04/07 01:00:12;;;;;;;3.60;3.30;;;0.90;99.90;;;;;;5033223;28;20707;-73
2021/04/07 01:02:39;;;;;;;4.87;3.57;;;0.80;99.90;;;;;;5033026;28;20735;-73
2021/04/07 01:05:05;;;;;;;4.10;3.70;;;0.70;99.90;;;;;;5033134;28;20594;-73
2021/04/07 01:07:31;;;;;;;3.70;3.07;;;0.90;99.90;;;;;;5032885;28;20211;-73
2021/04/07 01:09:57;;;;;;;3.63;3.30;;;0.90;99.90;;;;;;5031455;28;20224;-73
2021/04/07 01:12:23;;;;;;;4.47;3.60;;;0.80;99.90;;;;;;5033019;28;20178;-73
2021/04/07 01:14:49;;;;;;;3.97;3.67;;;0.80;99.90;;;;;;5027613;28;20698;-73
2021/04/07 01:17:15;;;;;;;3.73;3.43;;;0.90;99.90;;;;;;5013854;28;20170;-73
2021/04/07 01:19:42;;;;;;;3.53;3.23;;;1.00;99.90;;;;;;5018337;28;20175;-73
2021/04/07 01:22:08;;;;;;;3.43;3.17;;;0.90;99.90;;;;;;5012311;28;20172;-72
2021/04/07 01:24:35;;;;;;;4.30;3.43;;;0.90;99.90;;;;;;5014718;28;20171;-73
2021/04/07 01:27:02;;;;;;;4.33;3.00;;;1.10;99.90;;;;;;5014471;28;20185;-73
2021/04/07 01:29:28;;;;;;;3.33;3.07;;;1.20;99.90;;;;;;5013473;28;20210;-73
2021/04/07 01:31:55;;;;;;;3.93;3.63;;;1.20;99.90;;;;;;5013663;28;20163;-73
2021/04/07 01:34:26;;;;;;;4.40;3.30;;;1.30;99.90;;;;;;5012707;28;20194;-72
2021/04/07 01:36:53;;;;;;;3.53;3.23;;;1.30;99.90;;;;;;5017359;28;20171;-73
2021/04/07 01:39:21;;;;;;;3.57;3.30;;;1.40;99.90;;;;;;5014253;28;20218;-73
2021/04/07 01:41:47;;;;;;;3.30;2.93;;;1.30;99.90;;;;;;5014603;28;20170;-73
2021/04/07 01:44:15;;;;;;;3.40;2.90;;;1.20;99.90;;;;;;5012692;28;20185;-73
2021/04/07 01:46:42;;;;;;;3.10;2.90;;;1.30;99.90;;;;;;5012092;28;20176;-73
2021/04/07 01:49:09;;;;;;;3.10;2.80;;;1.20;99.90;;;;;;5002334;28;20221;-73
2021/04/07 01:51:35;;;;;;;3.47;2.83;;;1.30;99.90;;;;;;4997328;28;20173;-73
2021/04/07 01:54:13;;;;;;;3.63;2.83;;;1.30;99.90;;;;;;4997223;28;20178;-73
2021/04/07 01:56:56;;;;;;;2.70;2.50;;;1.30;99.90;;;;;;4995593;28;20223;-73
2021/04/07 01:59:24;;;;;;;2.77;2.27;;;1.30;99.90;;;;;;4997663;28;20717;-73
2021/04/07 02:01:51;;;;;;;3.97;2.40;;;1.40;99.90;;;;;;4992330;28;20198;-73
2021/04/07 02:04:18;;;;;;;3.50;2.63;;;1.40;99.90;;;;;;5017833;28;20176;-73
2021/04/07 02:06:44;;;;;;;2.67;2.33;;;1.40;99.90;;;;;;5000122;28;20180;-73
2021/04/07 02:09:10;;;;;;;2.67;2.10;;;1.50;99.90;;;;;;4996675;28;20615;-73
2021/04/07 02:11:54;;;;;;;2.53;2.30;;;1.50;99.90;;;;;;4995504;28;20183;-73
2021/04/07 02:14:23;;;;;;;2.57;2.37;;;1.40;99.90;;;;;;5006375;28;20188;-73
2021/04/07 02:16:54;;;;;;;2.60;2.33;;;1.40;99.90;;;;;;5033780;28;20200;-73
2021/04/07 02:19:21;;;;;;;3.63;2.53;;;1.40;99.90;;;;;;5030738;28;20195;-73
2021/04/07 02:22:09;;;;;;;2.90;2.43;;;1.30;99.90;;;;;;5031923;28;20172;-73
2021/04/07 02:24:40;;;;;;;2.67;2.20;;;1.40;99.90;;;;;;5032825;28;20167;-74
2021/04/07 02:27:13;;;;;;;2.10;2.00;;;1.40;99.90;;;;;;5032740;28;20214;-74
2021/04/07 02:29:42;;;;;;;2.73;2.23;;;1.40;99.90;;;;;;5031836;28;20168;-73
2021/04/07 02:32:08;;;;;;;2.30;2.00;;;1.40;99.90;;;;;;5031274;28;20172;-74
2021/04/07 02:34:34;;;;;;;3.53;1.80;;;1.40;99.90;;;;;;5025580;28;20170;-74
2021/04/07 02:37:00;;;;;;;2.03;1.60;;;1.50;99.90;;;;;;5031432;28;20532;-73
2021/04/07 02:39:26;;;;;;;1.87;1.50;;;1.50;99.90;;;;;;5032636;28;20552;-74
2021/04/07 02:41:52;;;;;;;2.30;1.50;;;1.50;99.90;;;;;;5032575;28;20196;-73
2021/04/07 02:44:18;;;;;;;1.77;1.60;;;1.50;99.90;;;;;;5032719;28;20637;-74
2021/04/07 02:46:44;;;;;;;1.60;1.47;;;1.30;99.90;;;;;;5031083;28;20659;-73
2021/04/07 02:49:09;;;;;;;2.63;1.57;;;1.40;99.90;;;;;;5031959;28;20200;-73
2021/04/07 02:51:35;;;;;;;4.40;2.20;;;1.40;99.90;;;;;;5028273;28;20179;-73
2021/04/07 02:54:01;;;;;;;1.97;1.47;;;1.40;99.90;;;;;;5031360;28;20182;-73
2021/04/07 02:56:31;;;;;;;1.50;1.40;;;1.40;99.90;;;;;;5036091;28;20322;-73
2021/04/07 02:58:58;;;;;;;1.90;1.33;;;1.50;99.90;;;;;;5035955;28;20733;-74
2021/04/07 03:01:24;;;;;;;1.70;1.60;;;1.50;99.90;;;;;;5035127;28;20172;-73
2021/04/07 03:03:50;;;;;;;1.63;1.53;;;1.50;99.90;;;;;;5035955;28;20171;-74
2021/04/07 03:06:17;;;;;;;1.57;1.30;;;1.50;99.90;;;;;;5035721;28;20672;-73
2021/04/07 03:08:42;;;;;;;2.17;1.33;;;1.50;99.90;;;;;;5035907;28;20197;-73
2021/04/07 03:11:09;;;;;;;1.50;1.20;;;1.50;99.90;;;;;;5035782;28;20174;-73
2021/04/07 03:13:34;;;;;;;1.40;1.30;;;1.50;99.90;;;;;;5035865;28;20180;-73
2021/04/07 03:16:00;;;;;;;3.67;1.87;;;1.30;99.90;;;;;;5035463;28;20218;-74
2021/04/07 03:18:26;;;;;;;2.00;1.50;;;1.30;99.90;;;;;;5035844;28;20233;-74
2021/04/07 03:20:52;;;;;;;1.80;1.37;;;1.30;99.90;;;;;;5034464;28;20189;-73
2021/04/07 03:23:18;;;;;;;2.00;1.60;;;1.30;99.90;;;;;;5050997;28;20166;-73
2021/04/07 03:25:44;;;;;;;1.50;1.40;;;1.30;99.90;;;;;;5035629;28;20175;-74
2021/04/07 03:28:11;;;;;;;2.40;1.40;;;1.30;99.90;;;;;;5035688;28;20226;-73
2021/04/07 03:30:49;;;;;;;1.57;1.47;;;1.30;99.90;;;;;;5035679;28;20180;-73
2021/04/07 03:33:19;;;;;;;1.97;1.47;;;1.30;99.90;;;;;;5026799;28;20256;-73
2021/04/07 03:35:45;;;;;;;2.03;1.77;;;1.30;99.90;;;;;;5035532;28;20186;-73
2021/04/07 03:38:11;;;;;;;2.60;1.60;;;1.30;99.90;;;;;;5033854;28;20235;-74
2021/04/07 03:40:38;;;;;;;2.23;1.57;;;1.40;99.90;;;;;;5034087;28;20177;-74
2021/04/07 03:43:05;;;;;;;2.70;1.80;;;1.30;99.90;;;;;;5035291;28;20586;-74
2021/04/07 03:45:31;;;;;;;2.47;1.60;;;1.30;99.90;;;;;;5034169;28;20259;-73
2021/04/07 03:47:57;;;;;;;1.97;1.50;;;1.30;99.90;;;;;;5035445;28;20210;-74
2021/04/07 03:50:22;;;;;;;2.23;1.60;;;1.20;99.90;;;;;;5035301;28;20173;-73
2021/04/07 03:52:48;;;;;;;2.10;1.77;;;1.10;99.90;;;;;;5035031;28;20176;-73
2021/04/07 03:55:14;;;;;;;2.67;1.67;;;1.20;99.90;;;;;;5034109;28;20200;-73
2021/04/07 03:57:40;;;;;;;3.10;1.60;;;1.20;99.90;;;;;;5035999;28;20223;-73
2021/04/07 04:00:07;;;;;;;2.53;1.60;;;1.20;99.90;;;;;;5036007;28;20164;-73
2021/04/07 04:02:33;;;;;;;1.73;1.40;;;1.00;99.90;;;;;;5010576;28;20259;-73
2021/04/07 04:04:59;;;;;;;4.10;1.70;;;1.00;99.90;;;;;;5022151;28;20170;-73
2021/04/07 04:07:24;;;;;;;2.17;1.90;;;1.00;99.90;;;;;;5022383;28;20182;-73
2021/04/07 04:09:50;;;;;;;2.57;1.80;;;1.10;99.90;;;;;;5033965;28;20680;-73
2021/04/07 04:12:16;;;;;;;1.70;1.60;;;1.00;99.90;;;;;;5033783;28;20206;-73
2021/04/07 04:14:41;;;;;;;1.90;1.60;;;1.00;99.90;;;;;;5034214;28;20213;-73
2021/04/07 04:17:08;;;;;;;1.50;1.40;;;0.90;99.90;;;;;;5032742;28;20193;-73
2021/04/07 04:19:34;;;;;;;3.23;1.80;;;0.90;99.90;;;;;;5034549;28;20322;-73
2021/04/07 04:22:01;;;;;;;1.60;1.50;;;0.90;99.90;;;;;;5034797;28;20174;-74
2021/04/07 04:24:27;;;;;;;2.73;1.50;;;1.00;99.90;;;;;;5034578;28;20219;-73
2021/04/07 04:26:53;;;;;;;3.27;1.67;;;1.10;99.90;;;;;;5034399;28;20257;-73
2021/04/07 04:29:19;;;;;;;2.20;1.97;;;1.10;99.90;;;;;;5034864;28;20203;-73
2021/04/07 04:31:46;;;;;;;2.13;1.30;;;1.10;99.90;;;;;;5034797;28;20176;-73
2021/04/07 04:34:11;;;;;;;2.47;1.70;;;1.00;99.90;;;;;;5025653;28;20257;-73
2021/04/07 04:36:37;;;;;;;2.10;1.90;;;1.00;99.90;;;;;;5021096;28;20806;-74
2021/04/07 04:39:03;;;;;;;2.57;1.83;;;1.00;99.90;;;;;;5060092;22;20234;-77
2021/04/07 04:41:28;;;;;;;1.80;1.70;;;1.10;99.90;;;;;;5063683;28;20188;-78
2021/04/07 04:43:54;;;;;;;1.80;1.70;;;0.90;99.90;;;;;;5054178;28;20171;-77
2021/04/07 04:46:20;;;;;;;2.77;1.80;;;0.90;99.90;;;;;;5054082;28;20190;-77
2021/04/07 04:48:45;;;;;;;3.63;1.70;;;0.90;99.90;;;;;;5052421;28;20194;-77
2021/04/07 04:51:11;;;;;;;2.77;1.80;;;0.90;99.90;;;;;;5053832;28;20665;-77
2021/04/07 04:53:37;;;;;;;2.03;1.83;;;0.90;99.90;;;;;;5054216;28;20180;-77
2021/04/07 04:56:04;;;;;;;2.00;1.57;;;0.90;99.90;;;;;;5054061;28;20205;-77
2021/04/07 04:58:31;;;;;;;1.57;1.47;;;0.90;99.90;;;;;;5054289;28;20562;-77
2021/04/07 05:00:57;;;;;;;1.93;1.53;;;0.80;99.90;;;;;;5058027;28;20175;-77
2021/04/07 05:03:23;;;;;;;1.90;1.80;;;0.60;99.90;;;;;;5054410;28;20231;-77
2021/04/07 05:05:49;;;;;;;2.40;1.87;;;0.60;99.90;;;;;;5054823;28;20174;-77
2021/04/07 05:08:14;;;;;;;2.67;2.00;;;0.70;99.90;;;;;;5054461;28;20257;-77
2021/04/07 05:10:40;;;;;;;2.60;1.90;;;0.80;99.90;;;;;;5054394;28;20185;-78
2021/04/07 05:13:06;;;;;;;1.77;1.67;;;0.60;99.90;;;;;;5044318;28;20191;-77
2021/04/07 05:15:31;;;;;;;2.43;2.07;;;0.60;99.90;;;;;;5044398;28;20670;-77
2021/04/07 05:17:57;;;;;;;2.30;2.10;;;0.70;99.90;;;;;;5054368;28;20262;-77
2021/04/07 05:20:23;;;;;;;3.43;2.40;;;0.70;99.90;;;;;;5054162;28;20202;-77
2021/04/07 05:22:49;;;;;;;3.00;2.10;;;0.70;99.90;;;;;;5045362;28;20263;-77
2021/04/07 05:25:15;;;;;;;5.77;2.00;;;0.70;99.90;;;;;;5028367;28;20194;-77
2021/04/07 05:27:41;;;;;;;3.23;2.63;;;0.50;99.90;;;;;;5040614;28;20221;-76
2021/04/07 05:30:08;;;;;;;5.60;4.13;;;0.50;99.90;;;;;;5035166;28;20202;-77
2021/04/07 05:32:34;;;;;;;3.30;3.00;;;0.60;99.90;;;;;;5034059;28;20179;-77
2021/04/07 05:35:00;;;;;;;3.33;2.50;;;0.90;99.90;;;;;;5033795;28;20222;-77
2021/04/07 05:37:26;;;;;;;2.53;2.33;;;0.80;99.90;;;;;;5048891;28;20590;-76
2021/04/07 05:39:52;;;;;;;4.13;2.30;;;0.90;99.90;;;;;;5035883;28;20223;-77
2021/04/07 05:42:18;;;;;;;2.57;2.37;;;0.90;99.90;;;;;;5037004;28;20543;-77
2021/04/07 05:44:44;;;;;;;3.47;2.57;;;0.80;99.90;;;;;;5034084;28;20171;-77
2021/04/07 05:47:10;;;;;;;2.60;2.40;;;0.70;99.90;;;;;;5034601;28;20178;-76
2021/04/07 05:49:36;;;;;;;3.17;2.63;;;0.70;99.90;;;;;;5037193;28;20618;-77
2021/04/07 05:52:01;;;;;;;3.33;2.60;;;0.60;99.90;;;;;;5034750;28;20550;-78
2021/04/07 05:54:27;;;;;;;2.70;2.50;;;0.70;99.90;;;;;;5033753;28;20195;-77
2021/04/07 05:56:53;;;;;;;2.57;2.37;;;0.70;99.90;;;;;;5033901;28;20573;-77
2021/04/07 05:59:19;;;;;;;2.50;2.27;;;0.60;99.90;;;;;;5033855;28;20201;-77
2021/04/07 06:01:44;;;;;;;2.33;2.13;;;0.70;99.90;;;;;;5032191;28;20182;-77
2021/04/07 06:04:10;;;;;;;3.13;2.00;;;0.60;99.90;;;;;;5032299;28;20206;-77
2021/04/07 06:06:36;;;;;;;3.17;2.30;;;0.70;99.90;;;;;;5031570;28;20178;-77
2021/04/07 06:09:01;;;;;;;2.60;2.40;;;0.70;99.90;;;;;;5034875;28;20203;-77
2021/04/07 06:11:27;;;;;;;4.00;2.57;;;0.30;99.90;;;;;;5052168;28;20182;-77
2021/04/07 06:13:53;;;;;;;3.37;2.90;;;0.30;99.90;;;;;;5051855;28;20274;-77
2021/04/07 06:16:19;;;;;;;5.20;2.87;;;0.30;99.90;;;;;;5053942;28;20280;-77
2021/04/07 06:18:45;;;;;;;2.70;2.50;;;0.20;99.90;;;;;;5052993;28;20667;-77
2021/04/07 06:21:10;;;;;;;4.60;3.30;;;0.20;99.90;;;;;;5053773;28;20177;-77
2021/04/07 06:23:36;;;;;;;2.30;2.10;;;0.20;99.90;;;;;;5052982;28;20174;-78
2021/04/07 06:26:02;;;;;;;3.40;2.97;;;0.10;99.90;;;;;;5057092;28;20577;-77
2021/04/07 06:28:27;;;;;;;2.40;2.20;;;0.00;99.90;;;;;;5055275;28;20641;-77
2021/04/07 06:30:53;;;;;;;4.53;3.00;;;0.20;99.90;;;;;;5045861;28;20668;-77
2021/04/07 06:33:23;;;;;;;3.37;2.90;;;0.40;99.90;;;;;;5051435;28;20249;-77
2021/04/07 06:35:57;;;;;;;3.37;2.97;;;0.50;99.90;;;;;;5043628;28;20200;-77
2021/04/07 06:38:24;;;;;;;3.07;2.87;;;0.60;99.90;;;;;;5038482;28;20173;-77
2021/04/07 06:40:50;;;;;;;2.90;2.70;;;0.70;99.90;;;;;;5038522;28;20183;-77
2021/04/07 06:43:22;;;;;;;3.20;2.90;;;0.80;99.90;;;;;;5038822;28;20172;-77
2021/04/07 06:45:48;;;;;;;4.33;3.30;;;0.90;99.90;;;;;;5043027;28;20176;-77
2021/04/07 06:48:15;;;;;;;4.03;2.60;;;0.90;99.90;;;;;;5022288;28;20191;-75
2021/04/07 06:50:42;;;;;;;4.47;3.10;;;0.70;99.90;;;;;;5036102;28;20179;-76
2021/04/07 06:53:09;;;;;;;6.03;2.73;;;0.70;99.90;;;;;;5036701;28;20191;-77
2021/04/07 06:55:36;;;;;;;3.20;2.40;;;0.60;99.90;;;;;;5036523;28;20195;-76
2021/04/07 06:58:04;;;;;;;3.90;2.83;;;0.60;99.90;;;;;;5054943;28;20684;-77
2021/04/07 07:00:31;;;;;;;3.37;3.07;;;0.40;99.90;;;;;;5040332;28;20557;-77
2021/04/07 07:03:04;;;;;;;5.00;3.10;;;0.60;99.90;;;;;;5054813;28;20178;-77
2021/04/07 07:05:31;;;;;;;3.77;3.47;;;0.70;99.90;;;;;;5056350;28;20183;-77
2021/04/07 07:08:27;;;;;;;3.00;2.80;;;0.70;99.90;;;;;;5055948;28;20166;-77
2021/04/07 07:10:53;;;;;;;4.03;3.67;;;0.60;99.90;;;;;;5052728;28;20193;-77
2021/04/07 07:13:22;;;;;;;3.20;2.20;;;0.70;99.90;;;;;;5056095;28;20255;-78
2021/04/07 07:15:48;;;;;;;3.43;2.60;;;0.70;99.90;;;;;;5053385;22;20365;-76
2021/04/07 07:18:25;;;;;;;3.57;2.67;;;0.70;99.90;;;;;;5039284;28;20659;-77
2021/04/07 07:20:51;;;;;;;4.40;2.80;;;0.70;99.90;;;;;;5054232;28;20174;-77
2021/04/07 07:23:29;;;;;;;3.47;3.07;;;0.70;99.90;;;;;;5051219;28;20224;-78
2021/04/07 07:26:02;;;;;;;3.83;3.37;;;0.90;99.90;;;;;;5049524;28;20173;-77
2021/04/07 07:28:42;;;;;;;6.20;5.00;;;1.10;99.90;;;;;;5051367;28;20213;-77
2021/04/07 07:31:26;;;;;;;2.47;1.83;;;1.30;99.90;;;;;;5042847;28;20178;-77
2021/04/07 07:33:54;;;;;;;3.00;2.30;;;1.30;99.90;;;;;;5055900;28;20215;-77
2021/04/07 07:36:21;;;;;;;2.40;2.20;;;1.30;99.90;;;;;;5051577;28;20205;-77
2021/04/07 07:38:48;;;;;;;2.30;1.80;;;1.10;99.90;;;;;;5056033;28;20565;-77
2021/04/07 07:41:26;;;;;;;2.53;1.70;;;1.10;99.90;;;;;;5055475;28;20697;-78
2021/04/07 07:43:53;;;;;;;3.33;1.60;;;1.30;99.90;;;;;;5044905;28;20643;-77
2021/04/07 07:46:26;;;;;;;2.90;1.50;;;1.30;99.90;;;;;;5054771;28;20220;-78
2021/04/07 07:48:52;;;;;;;6.10;3.47;;;1.50;99.90;;;;;;5054198;28;20198;-78
2021/04/07 07:51:23;;;;;;;3.47;1.60;;;1.40;99.90;;;;;;5055292;28;20222;-77
2021/04/07 07:53:52;;;;;;;3.20;1.60;;;1.50;99.90;;;;;;5041458;28;20254;-77
2021/04/07 07:56:20;;;;;;;1.87;1.40;;;1.50;99.90;;;;;;5068543;28;20201;-77
2021/04/07 07:58:49;;;;;;;1.83;1.33;;;1.50;99.90;;;;;;5055271;28;20202;-77
2021/04/07 08:01:16;;;;;;;1.57;0.90;;;1.60;99.90;;;;;;5054994;28;20174;-77
2021/04/07 08:03:47;;;;;;;2.70;1.40;;;1.50;99.90;;;;;;5053952;28;20178;-77
2021/04/07 08:06:15;;;;;;;1.50;1.10;;;1.60;99.90;;;;;;5054380;28;20181;-78
2021/04/07 08:08:40;;;;;;;1.40;0.90;;;1.70;99.90;;;;;;5054447;28;20199;-77
2021/04/07 08:11:09;;;;;;;1.60;1.00;;;1.80;99.90;;;;;;5055501;28;20705;-76
2021/04/07 08:13:53;;;;;;;3.03;1.07;;;1.70;99.90;;;;;;5032991;28;20176;-78
2021/04/07 08:16:21;;;;;;;1.50;1.00;;;1.70;99.90;;;;;;5056400;28;20217;-78
2021/04/07 08:18:49;;;;;;;2.37;1.07;;;1.70;99.90;;;;;;5054426;28;20547;-78
2021/04/07 08:21:17;;;;;;;1.13;0.70;;;1.70;99.90;;;;;;5053864;28;20176;-78
2021/04/07 08:23:46;;;;;;;1.37;0.70;;;1.80;99.90;;;;;;5055300;28;20175;-78
2021/04/07 08:26:15;;;;;;;2.53;0.80;;;1.80;99.90;;;;;;5056214;28;20175;-78
2021/04/07 08:28:41;;;;;;;1.90;0.80;;;1.90;99.90;;;;;;5055301;28;20199;-77
2021/04/07 08:31:12;;;;;;;1.90;1.10;;;1.90;99.90;;;;;;5055564;28;20181;-78
2021/04/07 08:33:38;;;;;;;1.43;1.10;;;2.00;99.90;;;;;;5054742;28;20205;-78
2021/04/07 08:36:04;;;;;;;1.77;0.90;;;2.20;99.90;;;;;;5053645;28;20223;-77
2021/04/07 08:38:34;;;;;;;2.13;1.10;;;2.10;99.90;;;;;;5053947;28;20247;-77
2021/04/07 08:41:22;;;;;;;2.13;1.30;;;2.20;99.90;;;;;;5053530;28;20611;-78
2021/04/07 08:43:48;;;;;;;2.07;1.00;;;2.10;99.90;;;;;;5050704;28;20202;-77
2021/04/07 08:46:22;;;;;;;2.63;1.40;;;2.30;99.90;;;;;;5054693;28;20260;-78
2021/04/07 08:48:48;;;;;;;1.37;0.97;;;2.40;99.90;;;;;;5054138;28;20248;-77
2021/04/07 08:51:16;;;;;;;1.93;0.93;;;2.50;99.90;;;;;;5052858;28;20178;-77
2021/04/07 08:53:45;;;;;;;1.90;1.13;;;2.40;99.90;;;;;;5054388;28;20261;-78
2021/04/07 08:56:13;;;;;;;1.83;0.90;;;2.40;99.90;;;;;;5053919;28;20282;-78
2021/04/07 08:58:51;;;;;;;1.73;1.00;;;2.30;99.90;;;;;;5054302;28;20199;-77
2021/04/07 09:01:19;;;;;;;1.47;0.67;;;2.20;99.90;;;;;;5054535;28;20186;-75
2021/04/07 09:03:45;;;;;;;2.63;1.10;;;2.30;99.90;;;;;;5053798;28;20223;-75
2021/04/07 09:06:14;;;;;;;1.60;0.83;;;2.30;99.90;;;;;;5038378;28;20659;-75
2021/04/07 09:08:50;;;;;;;1.90;1.10;;;2.20;99.90;;;;;;5044190;28;20212;-75
2021/04/07 09:11:50;;;;;;;1.73;0.90;;;2.20;99.90;;;;;;5053480;28;20195;-75
2021/04/07 09:14:17;;;;;;;1.37;0.80;;;2.20;99.90;;;;;;5042019;28;20309;-75
2021/04/07 09:16:43;;;;;;;1.70;0.80;;;2.00;99.90;;;;;;5036721;28;20666;-75
2021/04/07 09:19:15;;;;;;;1.43;0.90;;;2.00;99.90;;;;;;5034921;28;20242;-75
2021/04/07 09:21:59;;;;;;;1.20;0.90;;;2.20;99.90;;;;;;5034604;28;20176;-75
2021/04/07 09:24:29;;;;;;;1.67;1.00;;;2.40;99.90;;;;;;5044465;28;20181;-75
2021/04/07 09:26:57;;;;;;;1.90;1.00;;;2.50;99.90;;;;;;5042090;28;20259;-75
2021/04/07 09:29:23;;;;;;;2.50;1.00;;;2.50;99.90;;;;;;5031840;28;20198;-75
2021/04/07 09:31:52;;;;;;;1.37;0.90;;;2.60;99.90;;;;;;5020894;28;20271;-75
2021/04/07 09:34:19;;;;;;;0.90;0.90;;;2.70;99.90;;;;;;5029951;28;20176;-75
2021/04/07 09:36:46;;;;;;;1.77;1.00;;;2.50;99.90;;;;;;5046438;28;20213;-75
2021/04/07 09:39:26;;;;;;;1.50;0.80;;;2.50;99.90;;;;;;5025252;28;20224;-75
2021/04/07 09:41:52;;;;;;;2.23;0.97;;;2.60;99.90;;;;;;5049948;28;20170;-75
2021/04/07 09:44:18;;;;;;;3.80;1.13;;;2.70;99.90;;;;;;5053206;28;20169;-72
2021/04/07 09:46:53;;;;;;;2.57;1.13;;;2.70;99.90;;;;;;5043177;28;20180;-72
2021/04/07 09:49:18;;;;;;;1.67;0.83;;;2.80;99.90;;;;;;5049373;28;20336;-72
2021/04/07 09:51:51;;;;;;;2.50;1.10;;;2.80;99.90;;;;;;5037573;28;20701;-72
2021/04/07 09:54:26;;;;;;;0.97;0.80;;;3.00;99.90;;;;;;5046128;28;20660;-72
2021/04/07 09:57:00;;;;;;;2.10;0.80;;;3.10;99.90;;;;;;5053100;28;20198;-73
2021/04/07 09:59:38;;;;;;;1.27;0.90;;;3.10;99.90;;;;;;5036874;28;20197;-73
2021/04/07 10:02:12;;;;;;;1.23;1.00;;;3.00;99.90;;;;;;5019041;28;20216;-73
2021/04/07 10:04:41;;;;;;;1.57;1.30;;;3.10;99.90;;;;;;5017673;28;20171;-72
2021/04/07 10:07:10;;;;;;;3.80;1.57;;;3.00;99.90;;;;;;5047061;28;20166;-73
2021/04/07 10:09:37;;;;;;;3.70;1.40;;;3.10;99.90;;;;;;5055556;28;20191;-73
2021/04/07 10:12:03;;;;;;;2.37;1.67;;;3.10;99.90;;;;;;5051700;28;20180;-73
2021/04/07 10:14:29;;;;;;;2.73;1.90;;;3.10;99.90;;;;;;5057124;28;20179;-73
2021/04/07 10:16:55;;;;;;;1.60;1.50;;;3.10;99.90;;;;;;5055348;28;20206;-73
2021/04/07 10:19:29;;;;;;;1.87;1.57;;;2.90;99.90;;;;;;5056608;28;20282;-73
2021/04/07 10:21:59;;;;;;;3.00;1.67;;;3.00;99.90;;;;;;5056807;28;20568;-74
2021/04/07 10:24:26;;;;;;;2.50;1.80;;;2.90;99.90;;;;;;5056758;28;20216;-73
2021/04/07 10:26:52;;;;;;;3.10;1.80;;;2.90;99.90;;;;;;5056848;28;20173;-73
2021/04/07 10:29:23;;;;;;;6.10;2.53;;;2.80;99.90;;;;;;5056461;28;20561;-73
2021/04/07 10:31:58;;;;;;;1.43;1.13;;;3.00;99.90;;;;;;5053631;28;20180;-73
2021/04/07 10:34:34;;;;;;;2.50;1.60;;;3.00;99.90;;;;;;5032616;28;20185;-73
2021/04/07 10:37:03;;;;;;;4.83;1.87;;;3.00;99.90;;;;;;5044808;28;20199;-73
2021/04/07 10:39:40;;;;;;;1.80;1.40;;;2.90;99.90;;;;;;5054001;28;20204;-73
2021/04/07 10:42:18;;;;;;;5.33;1.70;;;2.80;99.90;;;;;;5048604;28;20182;-73
2021/04/07 10:45:01;;;;;;;2.63;1.43;;;2.70;99.90;;;;;;5065489;22;20230;-79
2021/04/07 10:47:37;;;;;;;2.50;1.57;;;2.80;99.90;;;;;;5054168;28;20172;-77
2021/04/07 10:50:04;;;;;;;1.97;1.60;;;2.90;99.90;;;;;;5056509;28;20176;-78
2021/04/07 10:52:56;;;;;;;1.60;1.50;;;2.90;99.90;;;;;;5055414;28;20631;-79
2021/04/07 10:55:26;;;;;;;1.87;1.40;;;3.10;99.90;;;;;;5040763;28;20214;-78
2021/04/07 10:57:54;;;;;;;5.00;1.83;;;3.00;99.90;;;;;;5046222;28;20187;-78
2021/04/07 11:00:35;;;;;;;2.30;1.70;;;2.90;99.90;;;;;;5053457;28;20650;-80
2021/04/07 11:03:02;;;;;;;5.10;1.60;;;3.10;99.90;;;;;;5043700;28;20175;-78
2021/04/07 11:05:40;;;;;;;3.27;1.90;;;3.00;99.90;;;;;;5044079;28;20291;-79
2021/04/07 11:08:08;;;;;;;2.67;1.80;;;3.00;99.90;;;;;;5039595;28;20182;-78
2021/04/07 11:10:42;;;;;;;1.50;1.30;;;3.10;99.90;;;;;;5040829;28;20547;-78
2021/04/07 11:13:10;;;;;;;3.70;1.80;;;3.10;99.90;;;;;;5040408;28;20178;-78
2021/04/07 11:15:36;;;;;;;1.70;1.43;;;3.00;99.90;;;;;;5046312;28;20207;-78
2021/04/07 11:18:02;;;;;;;3.00;1.60;;;3.10;99.90;;;;;;5040969;28;20191;-78
2021/04/07 11:20:28;;;;;;;3.30;1.40;;;3.00;99.90;;;;;;5044993;28;20243;-78
2021/04/07 11:22:55;;;;;;;3.40;1.97;;;3.00;99.90;;;;;;5038873;28;20168;-78
2021/04/07 11:25:21;;;;;;;2.40;1.67;;;3.00;99.90;;;;;;5041735;28;20688;-78
2021/04/07 11:27:48;;;;;;;2.50;2.10;;;3.00;99.90;;;;;;5041943;28;20256;-78
2021/04/07 11:30:14;;;;;;;3.83;1.90;;;2.90;99.90;;;;;;5050677;28;20182;-78
2021/04/07 11:32:45;;;;;;;3.27;1.87;;;2.90;99.90;;;;;;5041709;28;20677;-78
2021/04/07 11:35:19;;;;;;;2.03;1.63;;;3.00;99.90;;;;;;5044318;28;20252;-78
2021/04/07 11:40:22;;;;;;;4.23;1.87;;;3.30;99.90;;;;;;5042610;28;20280;-79
2021/04/07 11:42:58;;;;;;;2.70;2.07;;;3.50;99.90;;;;;;5035345;28;20259;-77
2021/04/07 11:45:23;;;;;;;2.87;1.73;;;3.50;99.90;;;;;;5036288;28;20217;-78
2021/04/07 11:47:49;;;;;;;2.20;2.00;;;3.60;99.90;;;;;;5034752;28;20177;-78
2021/04/07 11:50:15;;;;;;;1.70;1.47;;;3.50;99.90;;;;;;5035452;28;20184;-79
2021/04/07 11:52:41;;;;;;;2.03;1.70;;;3.60;99.90;;;;;;5038887;28;20612;-79
2021/04/07 11:55:07;;;;;;;2.13;1.60;;;3.80;99.90;;;;;;5037611;28;20596;-79
2021/04/07 11:57:33;;;;;;;1.47;1.30;;;3.60;99.90;;;;;;5036786;28;20225;-79
2021/04/07 11:59:59;;;;;;;1.27;1.13;;;3.80;99.90;;;;;;5033477;28;20216;-78
2021/04/07 12:02:25;;;;;;;1.80;1.20;;;4.00;99.90;;;;;;5027383;28;20229;-77
2021/04/07 12:04:52;;;;;;;2.40;1.53;;;4.00;99.90;;;;;;5037235;28;20278;-79
2021/04/07 12:07:18;;;;;;;2.77;1.90;;;3.90;99.90;;;;;;5037432;28;20176;-78
2021/04/07 12:09:47;;;;;;;2.23;1.60;;;3.90;99.90;;;;;;5036615;28;20171;-79
2021/04/07 12:12:13;;;;;;;2.73;1.77;;;3.80;99.90;;;;;;5038457;28;20218;-78
2021/04/07 12:14:39;;;;;;;2.10;1.73;;;3.90;99.90;;;;;;5037834;28;20207;-78
2021/04/07 12:17:04;;;;;;;1.90;1.57;;;3.70;99.90;;;;;;5036188;28;20560;-78
2021/04/07 12:19:31;;;;;;;5.60;2.30;;;3.60;99.90;;;;;;5037414;28;20199;-80
2021/04/07 12:21:57;;;;;;;2.83;1.80;;;3.50;99.90;;;;;;5035896;28;20196;-80
2021/04/07 12:24:23;;;;;;;4.10;2.00;;;3.50;99.90;;;;;;5041302;28;20198;-79
2021/04/07 12:26:49;;;;;;;2.57;2.13;;;3.50;99.90;;;;;;5040034;28;20227;-79
2021/04/07 12:29:14;;;;;;;3.00;2.13;;;3.70;99.90;;;;;;5041197;28;20197;-80
2021/04/07 12:31:41;;;;;;;3.30;2.17;;;3.70;99.90;;;;;;5042106;28;20529;-80
2021/04/07 12:34:06;;;;;;;2.30;2.10;;;3.90;99.90;;;;;;5023945;28;20205;-79
2021/04/07 12:36:33;;;;;;;2.07;1.87;;;3.90;99.90;;;;;;5041249;28;20199;-80
2021/04/07 12:39:01;;;;;;;3.03;1.77;;;4.00;99.90;;;;;;5039869;28;20614;-80
2021/04/07 12:41:35;;;;;;;2.00;1.80;;;4.20;99.90;;;;;;5040696;28;20296;-79
2021/04/07 12:44:02;;;;;;;2.70;1.97;;;4.20;99.90;;;;;;5039279;28;20240;-80
2021/04/07 12:46:27;;;;;;;3.77;2.27;;;4.10;99.90;;;;;;5041011;28;20231;-79
2021/04/07 12:48:53;;;;;;;3.63;2.33;;;4.00;99.90;;;;;;5038245;28;20632;-79
2021/04/07 12:51:21;;;;;;;3.33;1.83;;;3.80;99.90;;;;;;5035281;28;20174;-79
2021/04/07 12:53:50;;;;;;;3.53;2.30;;;3.50;99.90;;;;;;5035451;28;20198;-79
2021/04/07 12:59:00;;;;;;;2.10;1.90;;;3.60;99.90;;;;;;5037651;28;20221;-79
2021/04/07 13:01:26;;;;;;;3.17;1.93;;;3.50;99.90;;;;;;5036932;28;20175;-79
2021/04/07 13:03:53;;;;;;;2.20;1.80;;;3.30;99.90;;;;;;5035579;28;20224;-78
2021/04/07 13:06:19;;;;;;;3.30;1.97;;;3.30;99.90;;;;;;5036365;28;20182;-78
2021/04/07 13:08:45;;;;;;;2.57;1.80;;;3.30;99.90;;;;;;5035564;28;20196;-79